createdAt,value
2018-10-02T00:00:12.495Z,0
2018-10-02T00:01:13.265Z,0
2018-10-02T00:02:13.969Z,0
2018-10-02T00:03:14.688Z,0
2018-10-02T00:04:15.397Z,0
2018-10-02T00:05:16.361Z,0
2018-10-02T00:06:17.092Z,0
2018-10-02T00:07:17.813Z,0
2018-10-02T00:08:18.783Z,0
2018-10-02T00:09:19.509Z,0
2018-10-02T00:10:20.226Z,0
2018-10-02T00:11:20.992Z,0
2018-10-02T00:12:21.714Z,0
2018-10-02T00:13:22.432Z,0
2018-10-02T00:14:23.150Z,0
2018-10-02T00:15:23.865Z,0
2018-10-02T00:16:24.572Z,0
2018-10-02T00:17:25.284Z,0
2018-10-02T00:18:26.003Z,0
2018-10-02T00:19:26.962Z,0
2018-10-02T00:20:27.676Z,0
2018-10-02T00:21:28.648Z,0
2018-10-02T00:22:29.363Z,0
2018-10-02T00:23:30.381Z,0
2018-10-02T00:24:31.088Z,0
2018-10-02T00:25:31.805Z,0
2018-10-02T00:26:32.520Z,0
2018-10-02T00:27:33.481Z,0
2018-10-02T00:28:34.211Z,0
2018-10-02T00:29:34.923Z,0
2018-10-02T00:30:35.887Z,0
2018-10-02T00:31:36.704Z,0
2018-10-02T00:32:37.329Z,0
2018-10-02T00:33:38.032Z,0
2018-10-02T00:34:38.989Z,0
2018-10-02T00:35:39.706Z,0
2018-10-02T00:36:40.416Z,0
2018-10-02T00:37:41.137Z,0
2018-10-02T00:38:41.849Z,0
2018-10-02T00:39:42.563Z,0
2018-10-02T00:40:43.267Z,0
2018-10-02T00:41:44.031Z,0
2018-10-02T00:42:44.738Z,0
2018-10-02T00:43:45.456Z,0
2018-10-02T00:44:46.415Z,0
2018-10-02T00:45:47.128Z,0
2018-10-02T00:46:47.834Z,0
2018-10-02T00:47:48.560Z,0
2018-10-02T00:48:49.269Z,0
2018-10-02T00:49:49.977Z,0
2018-10-02T00:50:51.206Z,0
2018-10-02T00:51:51.913Z,0
2018-10-02T00:52:52.636Z,0
2018-10-02T00:53:53.353Z,0
2018-10-02T00:54:54.071Z,0
2018-10-02T00:55:54.810Z,0
2018-10-02T00:56:55.509Z,0
2018-10-02T00:57:56.488Z,0
2018-10-02T00:58:57.195Z,0
2018-10-02T00:59:57.910Z,0
2018-10-02T01:00:58.621Z,0
2018-10-02T01:01:59.340Z,0
2018-10-02T01:03:00.047Z,0
2018-10-02T01:04:00.765Z,0
2018-10-02T01:05:01.483Z,0
2018-10-02T01:06:02.192Z,0
2018-10-02T01:07:02.911Z,0
2018-10-02T01:08:03.628Z,0
2018-10-02T01:09:04.345Z,0
2018-10-02T01:10:05.067Z,0
2018-10-02T01:11:05.777Z,0
2018-10-02T01:12:06.492Z,0
2018-10-02T01:13:07.203Z,0
2018-10-02T01:14:07.911Z,0
2018-10-02T01:15:08.631Z,0
2018-10-02T01:16:09.344Z,0
2018-10-02T01:17:10.051Z,0
2018-10-02T01:18:10.768Z,0
2018-10-02T01:19:11.484Z,0
2018-10-02T01:20:12.257Z,0
2018-10-02T01:21:12.962Z,0
2018-10-02T01:22:13.673Z,0
2018-10-02T01:23:14.380Z,0
2018-10-02T01:24:15.089Z,0
2018-10-02T01:25:15.801Z,0
2018-10-02T01:26:16.530Z,0
2018-10-02T01:27:17.241Z,0
2018-10-02T01:28:18.212Z,0
2018-10-02T01:29:18.929Z,0
2018-10-02T01:30:19.693Z,0
2018-10-02T01:31:20.424Z,0
2018-10-02T01:32:21.135Z,0
2018-10-02T01:33:21.859Z,0
2018-10-02T01:34:22.564Z,0
2018-10-02T01:35:23.341Z,0
2018-10-02T01:36:24.057Z,0
2018-10-02T01:37:24.784Z,0
2018-10-02T01:38:25.496Z,0
2018-10-02T01:39:26.212Z,0
2018-10-02T01:40:26.971Z,0
2018-10-02T01:41:27.937Z,0
2018-10-02T01:42:28.653Z,0
2018-10-02T01:43:29.376Z,0
2018-10-02T01:44:30.084Z,0
2018-10-02T01:45:30.807Z,0
2018-10-02T01:46:31.832Z,0
2018-10-02T01:47:32.533Z,0
2018-10-02T01:48:33.242Z,0
2018-10-02T01:49:33.959Z,0
2018-10-02T01:50:34.674Z,0
2018-10-02T01:51:35.388Z,0
2018-10-02T01:52:36.111Z,0
2018-10-02T01:53:36.815Z,0
2018-10-02T01:54:37.538Z,0
2018-10-02T01:55:38.249Z,0
2018-10-02T01:56:38.965Z,0
2018-10-02T01:57:39.675Z,0
2018-10-02T01:58:40.384Z,0
2018-10-02T01:59:41.105Z,0
2018-10-02T02:00:41.812Z,0
2018-10-02T02:01:42.518Z,0
2018-10-02T02:02:43.536Z,0
2018-10-02T02:03:44.255Z,0
2018-10-02T02:04:44.962Z,0
2018-10-02T02:05:45.672Z,0
2018-10-02T02:06:46.638Z,0
2018-10-02T02:07:47.354Z,0
2018-10-02T02:08:48.057Z,0
2018-10-02T02:09:48.777Z,0
2018-10-02T02:10:49.479Z,0
2018-10-02T02:11:50.503Z,0
2018-10-02T02:12:51.208Z,0
2018-10-02T02:13:51.922Z,0
2018-10-02T02:14:52.888Z,0
2018-10-02T02:15:53.618Z,0
2018-10-02T02:16:54.333Z,0
2018-10-02T02:17:55.047Z,0
2018-10-02T02:18:55.761Z,0
2018-10-02T02:19:56.479Z,0
2018-10-02T02:20:57.193Z,0
2018-10-02T02:21:57.917Z,0
2018-10-02T02:22:58.639Z,0
2018-10-02T02:23:59.356Z,0
2018-10-02T02:25:00.077Z,0
2018-10-02T02:26:00.793Z,0
2018-10-02T02:27:01.813Z,0
2018-10-02T02:28:02.787Z,0
2018-10-02T02:29:03.496Z,0
2018-10-02T02:30:04.221Z,0
2018-10-02T02:31:04.933Z,0
2018-10-02T02:32:05.692Z,0
2018-10-02T02:33:06.400Z,0
2018-10-02T02:34:07.380Z,0
2018-10-02T02:35:08.093Z,0
2018-10-02T02:36:08.813Z,0
2018-10-02T02:37:09.531Z,0
2018-10-02T02:38:10.231Z,0
2018-10-02T02:39:10.957Z,0
2018-10-02T02:40:11.668Z,0
2018-10-02T02:41:12.383Z,0
2018-10-02T02:42:13.107Z,0
2018-10-02T02:43:13.818Z,0
2018-10-02T02:44:14.525Z,0
2018-10-02T02:45:15.242Z,0
2018-10-02T02:46:15.951Z,0
2018-10-02T02:47:16.676Z,0
2018-10-02T02:48:17.382Z,0
2018-10-02T02:49:18.099Z,0
2018-10-02T02:50:18.813Z,0
2018-10-02T02:51:19.539Z,0
2018-10-02T02:52:20.257Z,0
2018-10-02T02:53:20.971Z,0
2018-10-02T02:54:21.694Z,0
2018-10-02T02:55:22.658Z,0
2018-10-02T02:56:23.414Z,0
2018-10-02T02:57:24.145Z,0
2018-10-02T02:58:24.859Z,0
2018-10-02T02:59:25.577Z,0
2018-10-02T03:00:26.293Z,0
2018-10-02T03:01:27.309Z,0
2018-10-02T03:02:28.023Z,0
2018-10-02T03:03:28.743Z,0
2018-10-02T03:04:29.445Z,0
2018-10-02T03:05:30.402Z,0
2018-10-02T03:06:31.124Z,0
2018-10-02T03:07:31.837Z,0
2018-10-02T03:08:32.549Z,0
2018-10-02T03:09:33.262Z,0
2018-10-02T03:10:33.977Z,0
2018-10-02T03:11:34.691Z,0
2018-10-02T03:12:35.409Z,0
2018-10-02T03:13:36.115Z,0
2018-10-02T03:14:36.845Z,0
2018-10-02T03:15:37.574Z,0
2018-10-02T03:16:38.288Z,0
2018-10-02T03:17:39.019Z,0
2018-10-02T03:18:39.741Z,0
2018-10-02T03:19:40.459Z,0
2018-10-02T03:20:41.167Z,0
2018-10-02T03:21:41.967Z,0
2018-10-02T03:22:42.637Z,0
2018-10-02T03:23:43.352Z,0
2018-10-02T03:24:44.063Z,0
2018-10-02T03:25:44.778Z,0
2018-10-02T03:26:45.738Z,0
2018-10-02T03:27:46.454Z,0
2018-10-02T03:28:47.165Z,0
2018-10-02T03:29:47.885Z,0
2018-10-02T03:30:48.598Z,0
2018-10-02T03:31:49.356Z,0
2018-10-02T03:32:50.063Z,0
2018-10-02T03:33:50.776Z,0
2018-10-02T03:34:51.488Z,0
2018-10-02T03:35:52.208Z,0
2018-10-02T03:36:52.927Z,0
2018-10-02T03:37:53.712Z,0
2018-10-02T03:38:54.371Z,0
2018-10-02T03:39:55.080Z,0
2018-10-02T03:40:55.792Z,0
2018-10-02T03:41:56.519Z,0
2018-10-02T03:42:57.286Z,0
2018-10-02T03:43:58.004Z,0
2018-10-02T03:44:58.727Z,0
2018-10-02T03:45:59.439Z,0
2018-10-02T03:47:00.158Z,0
2018-10-02T03:48:00.923Z,0
2018-10-02T03:49:01.666Z,0
2018-10-02T03:50:02.333Z,0
2018-10-02T03:51:03.063Z,0
2018-10-02T03:52:03.787Z,0
2018-10-02T03:53:04.550Z,0
2018-10-02T03:54:05.269Z,0
2018-10-02T03:55:05.984Z,0
2018-10-02T03:56:06.702Z,0
2018-10-02T03:57:07.417Z,0
2018-10-02T03:58:08.191Z,0
2018-10-02T03:59:08.914Z,0
2018-10-02T04:00:09.626Z,0
2018-10-02T04:01:10.336Z,0
2018-10-02T04:02:11.040Z,0
2018-10-02T04:03:11.813Z,0
2018-10-02T04:04:12.522Z,0
2018-10-02T04:05:13.226Z,0
2018-10-02T04:06:13.945Z,0
2018-10-02T04:07:14.648Z,0
2018-10-02T04:08:15.368Z,0
2018-10-02T04:09:16.090Z,0
2018-10-02T04:10:16.798Z,0
2018-10-02T04:11:17.519Z,0
2018-10-02T04:12:18.231Z,0
2018-10-02T04:13:19.038Z,0
2018-10-02T04:14:19.718Z,0
2018-10-02T04:15:20.426Z,0
2018-10-02T04:16:21.148Z,0
2018-10-02T04:17:21.868Z,0
2018-10-02T04:18:22.596Z,0
2018-10-02T04:19:23.353Z,0
2018-10-02T04:20:24.074Z,0
2018-10-02T04:21:24.789Z,0
2018-10-02T04:22:25.492Z,0
2018-10-02T04:23:26.204Z,0
2018-10-02T04:24:26.911Z,0
2018-10-02T04:25:27.678Z,0
2018-10-02T04:26:28.397Z,0
2018-10-02T04:27:29.380Z,0
2018-10-02T04:28:30.158Z,0
2018-10-02T04:29:30.818Z,0
2018-10-02T04:30:31.570Z,0
2018-10-02T04:31:32.550Z,0
2018-10-02T04:32:33.255Z,0
2018-10-02T04:33:33.969Z,0
2018-10-02T04:34:34.674Z,0
2018-10-02T04:35:35.435Z,0
2018-10-02T04:36:36.164Z,0
2018-10-02T04:37:36.867Z,0
2018-10-02T04:38:37.581Z,0
2018-10-02T04:39:38.399Z,0
2018-10-02T04:40:39.070Z,0
2018-10-02T04:41:40.136Z,0
2018-10-02T04:42:40.910Z,0
2018-10-02T04:43:41.634Z,0
2018-10-02T04:44:43.768Z,0
2018-10-02T04:45:44.458Z,0
2018-10-02T04:46:45.173Z,0
2018-10-02T04:47:45.940Z,0
2018-10-02T04:48:46.661Z,0
2018-10-02T04:49:47.380Z,0
2018-10-02T04:50:48.096Z,0
2018-10-02T04:51:48.808Z,0
2018-10-02T04:52:49.526Z,0
2018-10-02T04:53:50.717Z,0
2018-10-02T04:54:51.491Z,0
2018-10-02T04:55:52.244Z,4
2018-10-02T04:56:52.890Z,4
2018-10-02T04:57:53.603Z,0
2018-10-02T04:58:54.427Z,4
2018-10-02T04:59:55.152Z,4
2018-10-02T05:00:55.873Z,4
2018-10-02T05:01:56.601Z,4
2018-10-02T05:02:57.317Z,8
2018-10-02T05:03:58.038Z,8
2018-10-02T05:04:59.000Z,8
2018-10-02T05:05:59.718Z,12
2018-10-02T05:07:00.437Z,12
2018-10-02T05:08:01.150Z,12
2018-10-02T05:09:01.872Z,16
2018-10-02T05:10:02.592Z,16
2018-10-02T05:11:03.314Z,20
2018-10-02T05:12:04.032Z,24
2018-10-02T05:13:04.742Z,28
2018-10-02T05:14:05.476Z,32
2018-10-02T05:15:06.177Z,32
2018-10-02T05:16:06.957Z,36
2018-10-02T05:17:07.663Z,40
2018-10-02T05:18:08.384Z,44
2018-10-02T05:19:09.108Z,52
2018-10-02T05:20:09.834Z,56
2018-10-02T05:21:10.597Z,64
2018-10-02T05:22:11.310Z,72
2018-10-02T05:23:12.023Z,76
2018-10-02T05:24:12.741Z,80
2018-10-02T05:25:13.458Z,88
2018-10-02T05:26:14.232Z,92
2018-10-02T05:27:14.999Z,104
2018-10-02T05:28:15.673Z,108
2018-10-02T05:29:16.387Z,120
2018-10-02T05:30:17.106Z,128
2018-10-02T05:31:17.825Z,136
2018-10-02T05:32:18.536Z,148
2018-10-02T05:33:19.252Z,160
2018-10-02T05:34:19.973Z,168
2018-10-02T05:35:20.804Z,184
2018-10-02T05:36:21.417Z,208
2018-10-02T05:37:22.136Z,216
2018-10-02T05:38:22.854Z,216
2018-10-02T05:39:23.587Z,208
2018-10-02T05:40:24.310Z,204
2018-10-02T05:41:25.029Z,204
2018-10-02T05:42:25.753Z,220
2018-10-02T05:43:26.477Z,236
2018-10-02T05:44:27.195Z,248
2018-10-02T05:45:27.909Z,280
2018-10-02T05:46:28.884Z,296
2018-10-02T05:47:29.605Z,296
2018-10-02T05:48:30.321Z,332
2018-10-02T05:49:31.048Z,324
2018-10-02T05:50:32.082Z,316
2018-10-02T05:51:32.808Z,344
2018-10-02T05:52:33.522Z,352
2018-10-02T05:53:34.296Z,356
2018-10-02T05:54:34.967Z,348
2018-10-02T05:55:35.683Z,392
2018-10-02T05:56:36.407Z,412
2018-10-02T05:57:37.123Z,460
2018-10-02T05:58:37.843Z,492
2018-10-02T05:59:38.563Z,528
2018-10-02T06:00:39.284Z,556
2018-10-02T06:01:40.056Z,580
2018-10-02T06:02:40.780Z,580
2018-10-02T06:03:41.760Z,600
2018-10-02T06:04:42.487Z,680
2018-10-02T06:05:43.209Z,760
2018-10-02T06:06:43.984Z,808
2018-10-02T06:07:44.698Z,844
2018-10-02T06:08:45.416Z,844
2018-10-02T06:09:46.158Z,820
2018-10-02T06:10:46.857Z,840
2018-10-02T06:11:47.624Z,892
2018-10-02T06:12:48.600Z,964
2018-10-02T06:13:49.322Z,1016
2018-10-02T06:14:50.285Z,1032
2018-10-02T06:15:51.007Z,1028
2018-10-02T06:16:51.783Z,1004
2018-10-02T06:17:52.513Z,1000
2018-10-02T06:18:53.480Z,1008
2018-10-02T06:19:54.195Z,1044
2018-10-02T06:20:54.928Z,1044
2018-10-02T06:21:55.703Z,940
2018-10-02T06:22:56.430Z,832
2018-10-02T06:23:57.397Z,832
2018-10-02T06:24:59.083Z,872
2018-10-02T06:26:00.423Z,908
2018-10-02T06:27:01.438Z,1008
2018-10-02T06:28:02.352Z,1064
2018-10-02T06:29:03.203Z,1208
2018-10-02T06:30:03.918Z,1192
2018-10-02T06:31:04.636Z,1224
2018-10-02T06:32:05.607Z,1108
2018-10-02T06:33:06.313Z,1092
2018-10-02T06:34:07.040Z,1256
2018-10-02T06:35:08.135Z,1344
2018-10-02T06:36:08.854Z,1340
2018-10-02T06:37:09.556Z,1312
2018-10-02T06:38:10.342Z,1432
2018-10-02T06:39:11.023Z,1464
2018-10-02T06:40:11.753Z,1484
2018-10-02T06:41:12.462Z,1400
2018-10-02T06:42:13.187Z,1364
2018-10-02T06:43:13.904Z,1492
2018-10-02T06:44:14.626Z,1448
2018-10-02T06:45:15.420Z,1608
2018-10-02T06:46:16.387Z,1712
2018-10-02T06:47:17.104Z,1772
2018-10-02T06:48:18.094Z,1848
2018-10-02T06:49:18.799Z,1956
2018-10-02T06:50:19.519Z,2012
2018-10-02T06:51:20.396Z,2192
2018-10-02T06:52:21.291Z,2316
2018-10-02T06:53:21.693Z,2420
2018-10-02T06:54:22.417Z,2492
2018-10-02T06:55:23.126Z,2556
2018-10-02T06:56:23.871Z,2708
2018-10-02T06:57:24.579Z,2888
2018-10-02T06:58:25.322Z,3092
2018-10-02T06:59:26.030Z,3320
2018-10-02T07:00:26.807Z,3612
2018-10-02T07:01:27.475Z,3916
2018-10-02T07:02:28.211Z,4112
2018-10-02T07:03:28.908Z,4104
2018-10-02T07:04:29.631Z,4292
2018-10-02T07:05:30.353Z,4608
2018-10-02T07:06:31.080Z,4488
2018-10-02T07:07:31.796Z,4624
2018-10-02T07:08:32.796Z,4676
2018-10-02T07:09:33.492Z,4552
2018-10-02T07:10:34.216Z,4508
2018-10-02T07:11:34.941Z,4764
2018-10-02T07:12:35.712Z,4844
2018-10-02T07:13:36.380Z,4928
2018-10-02T07:14:37.114Z,5128
2018-10-02T07:15:37.825Z,5356
2018-10-02T07:16:38.545Z,5504
2018-10-02T07:17:39.333Z,5924
2018-10-02T07:18:40.007Z,6352
2018-10-02T07:19:40.787Z,6640
2018-10-02T07:20:41.577Z,7064
2018-10-02T07:21:42.230Z,7144
2018-10-02T07:22:42.947Z,6772
2018-10-02T07:23:43.681Z,6416
2018-10-02T07:24:44.396Z,6108
2018-10-02T07:25:45.173Z,6200
2018-10-02T07:26:46.049Z,6240
2018-10-02T07:27:46.694Z,6412
2018-10-02T07:28:47.352Z,6488
2018-10-02T07:29:48.064Z,6264
2018-10-02T07:30:48.805Z,5812
2018-10-02T07:31:49.498Z,6444
2018-10-02T07:32:51.672Z,6572
2018-10-02T07:33:52.888Z,6180
2018-10-02T07:34:54.107Z,5904
2018-10-02T07:35:54.827Z,5868
2018-10-02T07:36:55.644Z,4752
2018-10-02T07:37:56.655Z,5124
2018-10-02T07:38:57.403Z,5276
2018-10-02T07:39:58.110Z,4400
2018-10-02T07:40:58.832Z,3820
2018-10-02T07:41:59.548Z,3420
2018-10-02T07:43:00.273Z,3532
2018-10-02T07:44:00.991Z,3292
2018-10-02T07:45:02.013Z,3244
2018-10-02T07:46:02.733Z,3000
2018-10-02T07:47:03.458Z,2760
2018-10-02T07:48:04.202Z,2120
2018-10-02T07:49:04.889Z,2052
2018-10-02T07:50:05.605Z,2540
2018-10-02T07:51:06.331Z,2396
2018-10-02T07:52:07.039Z,2376
2018-10-02T07:53:07.761Z,2584
2018-10-02T07:54:08.490Z,2396
2018-10-02T07:55:09.216Z,2432
2018-10-02T07:56:09.924Z,2988
2018-10-02T07:57:10.654Z,2960
2018-10-02T07:58:11.628Z,3512
2018-10-02T07:59:12.369Z,3608
2018-10-02T08:00:13.082Z,3800
2018-10-02T08:01:13.808Z,3784
2018-10-02T08:02:14.533Z,4164
2018-10-02T08:03:15.245Z,4056
2018-10-02T08:04:15.968Z,5528
2018-10-02T08:05:16.812Z,6116
2018-10-02T08:06:17.463Z,6004
2018-10-02T08:07:18.434Z,6500
2018-10-02T08:08:19.144Z,5968
2018-10-02T08:09:19.857Z,7464
2018-10-02T08:10:20.576Z,7172
2018-10-02T08:11:21.319Z,7676
2018-10-02T08:12:22.186Z,8552
2018-10-02T08:13:22.743Z,8280
2018-10-02T08:14:23.502Z,7268
2018-10-02T08:15:24.185Z,5036
2018-10-02T08:16:24.904Z,4308
2018-10-02T08:17:25.659Z,3924
2018-10-02T08:18:26.340Z,5108
2018-10-02T08:19:27.055Z,4976
2018-10-02T08:20:28.062Z,4600
2018-10-02T08:21:28.758Z,5724
2018-10-02T08:22:29.484Z,6840
2018-10-02T08:23:30.217Z,4936
2018-10-02T08:24:30.935Z,3728
2018-10-02T08:25:31.657Z,4340
2018-10-02T08:26:32.407Z,3936
2018-10-02T08:27:33.090Z,3752
2018-10-02T08:28:33.862Z,3784
2018-10-02T08:29:34.676Z,3216
2018-10-02T08:30:35.299Z,3804
2018-10-02T08:31:36.005Z,5212
2018-10-02T08:32:37.052Z,4004
2018-10-02T08:33:37.733Z,4016
2018-10-02T08:34:38.465Z,3556
2018-10-02T08:35:39.252Z,3444
2018-10-02T08:36:39.969Z,3036
2018-10-02T08:37:40.626Z,2924
2018-10-02T08:38:41.397Z,2784
2018-10-02T08:39:42.067Z,2940
2018-10-02T08:40:42.784Z,3548
2018-10-02T08:41:43.536Z,3392
2018-10-02T08:42:44.236Z,2760
2018-10-02T08:43:44.974Z,3516
2018-10-02T08:44:45.682Z,5940
2018-10-02T08:45:46.397Z,4652
2018-10-02T08:46:47.121Z,4484
2018-10-02T08:47:47.844Z,4508
2018-10-02T08:48:48.559Z,4964
2018-10-02T08:49:49.278Z,5560
2018-10-02T08:50:50.057Z,6020
2018-10-02T08:51:50.845Z,5648
2018-10-02T08:52:51.488Z,6888
2018-10-02T08:53:52.270Z,8964
2018-10-02T08:54:52.939Z,7456
2018-10-02T08:55:53.666Z,7508
2018-10-02T08:56:54.377Z,5340
2018-10-02T08:57:55.097Z,4868
2018-10-02T08:58:55.817Z,4828
2018-10-02T08:59:56.535Z,5172
2018-10-02T09:00:57.590Z,5524
2018-10-02T09:01:58.291Z,4168
2018-10-02T09:02:59.054Z,4192
2018-10-02T09:03:59.728Z,4940
2018-10-02T09:05:00.442Z,4640
2018-10-02T09:06:01.220Z,4720
2018-10-02T09:07:02.013Z,4760
2018-10-02T09:08:02.684Z,4064
2018-10-02T09:09:03.405Z,5684
2018-10-02T09:10:04.118Z,5040
2018-10-02T09:11:04.846Z,6468
2018-10-02T09:12:05.583Z,4044
2018-10-02T09:13:06.296Z,4684
2018-10-02T09:14:07.007Z,3888
2018-10-02T09:15:12.157Z,4068
2018-10-02T09:16:08.572Z,3692
2018-10-02T09:17:09.178Z,3844
2018-10-02T09:18:09.890Z,3188
2018-10-02T09:19:10.609Z,4492
2018-10-02T09:20:11.324Z,4152
2018-10-02T09:21:12.039Z,5536
2018-10-02T09:22:12.764Z,3932
2018-10-02T09:23:13.481Z,3972
2018-10-02T09:24:14.218Z,3304
2018-10-02T09:25:14.944Z,4424
2018-10-02T09:26:15.676Z,3932
2018-10-02T09:27:16.389Z,3308
2018-10-02T09:28:17.164Z,3988
2018-10-02T09:29:17.892Z,4460
2018-10-02T09:30:18.727Z,5396
2018-10-02T09:31:19.379Z,3900
2018-10-02T09:32:20.077Z,3320
2018-10-02T09:33:20.811Z,3784
2018-10-02T09:34:21.526Z,4548
2018-10-02T09:35:22.492Z,4184
2018-10-02T09:36:23.248Z,4600
2018-10-02T09:37:23.961Z,4736
2018-10-02T09:38:24.682Z,4040
2018-10-02T09:39:25.462Z,4252
2018-10-02T09:40:26.119Z,4012
2018-10-02T09:41:26.837Z,5880
2018-10-02T09:42:27.589Z,5508
2018-10-02T09:43:28.307Z,5792
2018-10-02T09:44:29.001Z,4988
2018-10-02T09:45:29.742Z,5012
2018-10-02T09:46:30.444Z,4856
2018-10-02T09:47:31.413Z,4176
2018-10-02T09:48:32.172Z,3336
2018-10-02T09:49:32.923Z,3344
2018-10-02T09:50:33.699Z,2664
2018-10-02T09:51:34.348Z,2756
2018-10-02T09:52:35.373Z,4460
2018-10-02T09:53:36.088Z,4572
2018-10-02T09:54:36.918Z,5244
2018-10-02T09:55:37.586Z,6672
2018-10-02T09:56:38.382Z,8000
2018-10-02T09:57:39.031Z,7980
2018-10-02T09:58:39.812Z,7140
2018-10-02T09:59:40.512Z,6856
2018-10-02T10:00:41.310Z,6444
2018-10-02T10:01:41.958Z,5752
2018-10-02T10:02:42.718Z,6348
2018-10-02T10:03:43.391Z,5292
2018-10-02T10:04:44.108Z,6124
2018-10-02T10:05:44.831Z,5964
2018-10-02T10:06:45.550Z,7744
2018-10-02T10:07:46.281Z,6700
2018-10-02T10:08:47.041Z,6148
2018-10-02T10:09:48.056Z,7884
2018-10-02T10:10:48.778Z,7228
2018-10-02T10:11:49.744Z,6572
2018-10-02T10:12:50.458Z,6708
2018-10-02T10:13:51.179Z,5500
2018-10-02T10:14:51.891Z,5812
2018-10-02T10:15:52.638Z,6204
2018-10-02T10:16:54.838Z,6948
2018-10-02T10:17:55.940Z,6492
2018-10-02T10:18:57.234Z,5712
2018-10-02T10:19:57.944Z,5972
2018-10-02T10:20:58.705Z,7404
2018-10-02T10:21:59.413Z,6612
2018-10-02T10:23:00.193Z,7316
2018-10-02T10:24:00.846Z,6260
2018-10-02T10:25:01.557Z,6172
2018-10-02T10:26:02.287Z,6540
2018-10-02T10:27:03.008Z,5688
2018-10-02T10:28:03.981Z,5968
2018-10-02T10:29:04.757Z,5776
2018-10-02T10:30:05.462Z,6512
2018-10-02T10:31:06.431Z,5892
2018-10-02T10:32:07.160Z,5336
2018-10-02T10:33:07.885Z,5392
2018-10-02T10:34:09.115Z,6900
2018-10-02T10:35:09.826Z,7700
2018-10-02T10:36:10.535Z,7256
2018-10-02T10:37:11.544Z,8252
2018-10-02T10:38:12.247Z,8128
2018-10-02T10:39:12.990Z,8548
2018-10-02T10:40:13.716Z,8656
2018-10-02T10:41:14.432Z,10376
2018-10-02T10:42:15.173Z,9160
2018-10-02T10:43:15.940Z,10540
2018-10-02T10:44:16.956Z,7288
2018-10-02T10:45:18.019Z,6392
2018-10-02T10:46:19.180Z,7388
2018-10-02T10:47:19.887Z,7916
2018-10-02T10:48:20.601Z,7444
2018-10-02T10:49:21.312Z,8096
2018-10-02T10:50:22.490Z,6808
2018-10-02T10:51:23.207Z,6548
2018-10-02T10:52:23.999Z,8060
2018-10-02T10:53:24.659Z,7488
2018-10-02T10:54:25.407Z,7404
2018-10-02T10:55:26.104Z,7952
2018-10-02T10:56:26.907Z,8268
2018-10-02T10:57:27.547Z,7992
2018-10-02T10:58:28.537Z,8232
2018-10-02T10:59:29.303Z,7180
2018-10-02T11:00:30.020Z,9068
2018-10-02T11:01:30.746Z,9120
2018-10-02T11:02:31.463Z,8384
2018-10-02T11:03:32.433Z,8336
2018-10-02T11:04:33.248Z,6680
2018-10-02T11:05:33.864Z,7360
2018-10-02T11:06:34.881Z,6432
2018-10-02T11:07:35.612Z,6136
2018-10-02T11:08:36.334Z,7072
2018-10-02T11:09:37.151Z,7248
2018-10-02T11:10:37.773Z,5980
2018-10-02T11:11:39.265Z,5048
2018-10-02T11:12:40.881Z,5696
2018-10-02T11:13:41.918Z,5392
2018-10-02T11:14:42.642Z,5896
2018-10-02T11:15:43.351Z,6832
2018-10-02T11:16:44.122Z,8056
2018-10-02T11:17:44.866Z,8000
2018-10-02T11:18:45.602Z,7692
2018-10-02T11:19:46.305Z,9412
2018-10-02T11:20:47.016Z,7828
2018-10-02T11:21:47.797Z,6828
2018-10-02T11:22:48.523Z,7816
2018-10-02T11:23:49.488Z,8744
2018-10-02T11:24:50.239Z,7296
2018-10-02T11:25:50.970Z,9992
2018-10-02T11:26:51.722Z,9152
2018-10-02T11:27:52.437Z,9520
2018-10-02T11:28:53.151Z,12484
2018-10-02T11:29:53.938Z,9924
2018-10-02T11:30:54.579Z,7384
2018-10-02T11:31:55.351Z,6860
2018-10-02T11:32:56.323Z,7156
2018-10-02T11:33:57.047Z,6784
2018-10-02T11:34:57.782Z,8292
2018-10-02T11:35:58.512Z,10780
2018-10-02T11:36:59.237Z,12184
2018-10-02T11:37:59.953Z,11376
2018-10-02T11:39:00.674Z,10624
2018-10-02T11:40:01.414Z,11212
2018-10-02T11:41:02.126Z,7856
2018-10-02T11:42:02.851Z,6896
2018-10-02T11:43:03.649Z,9104
2018-10-02T11:44:04.393Z,10584
2018-10-02T11:45:05.084Z,10556
2018-10-02T11:46:05.789Z,11100
2018-10-02T11:47:06.508Z,9304
2018-10-02T11:48:07.294Z,10480
2018-10-02T11:49:08.034Z,11520
2018-10-02T11:50:08.761Z,9512
2018-10-02T11:51:09.478Z,8832
2018-10-02T11:52:10.203Z,10460
2018-10-02T11:53:10.974Z,8072
2018-10-02T11:54:11.956Z,5720
2018-10-02T11:55:12.711Z,7360
2018-10-02T11:56:13.412Z,10400
2018-10-02T11:57:14.390Z,8644
2018-10-02T11:58:15.106Z,10780
2018-10-02T11:59:15.818Z,7888
2018-10-02T12:00:16.550Z,8192
2018-10-02T12:01:17.387Z,9208
2018-10-02T12:02:18.412Z,9048
2018-10-02T12:03:19.153Z,7728
2018-10-02T12:04:19.905Z,5976
2018-10-02T12:05:20.867Z,6744
2018-10-02T12:06:21.847Z,6892
2018-10-02T12:07:22.559Z,12480
2018-10-02T12:08:23.539Z,10712
2018-10-02T12:09:24.258Z,7856
2018-10-02T12:10:25.231Z,6320
2018-10-02T12:11:26.015Z,6044
2018-10-02T12:12:27.079Z,9440
2018-10-02T12:13:27.846Z,11164
2018-10-02T12:14:28.850Z,12732
2018-10-02T12:15:29.254Z,9568
2018-10-02T12:16:30.040Z,9660
2018-10-02T12:17:31.016Z,11172
2018-10-02T12:18:31.790Z,10428
2018-10-02T12:19:32.999Z,12276
2018-10-02T12:20:33.615Z,10224
2018-10-02T12:21:34.510Z,10680
2018-10-02T12:22:35.237Z,8960
2018-10-02T12:23:36.089Z,7688
2018-10-02T12:24:36.779Z,9748
2018-10-02T12:25:37.503Z,8868
2018-10-02T12:26:38.798Z,9028
2018-10-02T12:27:39.511Z,11140
2018-10-02T12:28:40.237Z,10532
2018-10-02T12:29:40.955Z,8524
2018-10-02T12:30:41.989Z,8428
2018-10-02T12:31:42.962Z,7196
2018-10-02T12:32:43.928Z,6796
2018-10-02T12:33:44.655Z,7676
2018-10-02T12:34:45.370Z,7176
2018-10-02T12:35:46.154Z,11824
2018-10-02T12:36:46.881Z,10588
2018-10-02T12:37:47.601Z,11516
2018-10-02T12:38:48.345Z,9624
2018-10-02T12:39:49.065Z,13144
2018-10-02T12:40:49.843Z,14112
2018-10-02T12:41:50.563Z,17820
2018-10-02T12:42:51.288Z,12904
2018-10-02T12:43:52.008Z,12336
2018-10-02T12:44:52.743Z,12532
2018-10-02T12:45:53.515Z,12232
2018-10-02T12:46:54.508Z,10880
2018-10-02T12:47:55.205Z,9080
2018-10-02T12:48:55.919Z,7888
2018-10-02T12:49:56.647Z,10636
2018-10-02T12:50:57.365Z,10712
2018-10-02T12:51:58.082Z,9912
2018-10-02T12:52:58.890Z,9688
2018-10-02T12:53:59.539Z,8312
2018-10-02T12:55:00.263Z,7468
2018-10-02T12:56:00.984Z,9056
2018-10-02T12:57:01.705Z,6252
2018-10-02T12:58:02.680Z,7556
2018-10-02T12:59:03.391Z,10428
2018-10-02T13:00:04.109Z,9872
2018-10-02T13:01:04.838Z,11800
2018-10-02T13:02:05.548Z,10860
2018-10-02T13:03:06.573Z,14608
2018-10-02T13:04:07.604Z,12500
2018-10-02T13:05:08.328Z,6468
2018-10-02T13:06:09.078Z,5508
2018-10-02T13:07:10.193Z,10160
2018-10-02T13:08:10.918Z,10040
2018-10-02T13:09:12.097Z,7376
2018-10-02T13:10:12.861Z,9864
2018-10-02T13:11:13.519Z,9548
2018-10-02T13:12:14.500Z,11852
2018-10-02T13:13:15.270Z,9804
2018-10-02T13:14:15.944Z,8140
2018-10-02T13:15:16.670Z,7808
2018-10-02T13:16:17.398Z,9064
2018-10-02T13:17:18.382Z,6772
2018-10-02T13:18:19.147Z,6956
2018-10-02T13:19:19.877Z,8368
2018-10-02T13:20:20.613Z,10724
2018-10-02T13:21:21.338Z,8080
2018-10-02T13:22:22.069Z,7596
2018-10-02T13:23:22.826Z,7044
2018-10-02T13:24:23.540Z,10168
2018-10-02T13:25:24.382Z,16180
2018-10-02T13:26:25.005Z,11740
2018-10-02T13:27:25.966Z,9020
2018-10-02T13:28:26.706Z,8364
2018-10-02T13:29:27.427Z,9300
2018-10-02T13:30:28.148Z,11076
2018-10-02T13:31:29.145Z,12816
2018-10-02T13:32:29.867Z,7712
2018-10-02T13:33:30.591Z,7128
2018-10-02T13:34:31.386Z,6928
2018-10-02T13:35:32.092Z,9340
2018-10-02T13:36:32.806Z,10152
2018-10-02T13:37:33.782Z,10296
2018-10-02T13:38:34.496Z,12868
2018-10-02T13:39:35.230Z,16092
2018-10-02T13:40:35.958Z,12800
2018-10-02T13:41:36.938Z,19392
2018-10-02T13:42:37.668Z,13696
2018-10-02T13:43:38.393Z,11508
2018-10-02T13:44:39.147Z,14556
2018-10-02T13:45:39.885Z,11864
2018-10-02T13:46:40.617Z,10716
2018-10-02T13:47:41.380Z,11968
2018-10-02T13:48:42.093Z,12364
2018-10-02T13:49:42.827Z,13536
2018-10-02T13:50:43.651Z,8868
2018-10-02T13:51:44.321Z,7304
2018-10-02T13:52:46.125Z,7604
2018-10-02T13:53:47.072Z,9556
2018-10-02T13:54:47.804Z,6740
2018-10-02T13:55:48.825Z,7004
2018-10-02T13:56:49.535Z,5276
2018-10-02T13:57:50.348Z,7344
2018-10-02T13:58:51.073Z,6504
2018-10-02T13:59:51.784Z,7384